sensor_id;sensor_type;location;lat;lon;timestamp;P1;durP1;ratioP1;P2;durP2;ratioP2
12816;SDS011;6473;51.552;6.716;2023-03-03T02:05:17;29.05;;;14.70;;
12816;SDS011;6473;51.552;6.716;2023-03-03T02:07:45;26.47;;;14.43;;
12816;SDS011;6473;51.552;6.716;2023-03-03T02:10:13;34.67;;;15.77;;
12816;SDS011;6473;51.552;6.716;2023-03-03T02:12:42;27.08;;;14.27;;
12816;SDS011;6473;51.552;6.716;2023-03-03T02:15:17;35.03;;;16.40;;
12816;SDS011;6473;51.552;6.716;2023-03-03T02:17:46;37.28;;;16.85;;
12816;SDS011;6473;51.552;6.716;2023-03-03T02:20:15;33.97;;;16.40;;
12816;SDS011;6473;51.552;6.716;2023-03-03T02:22:54;34.57;;;17.03;;
12816;SDS011;6473;51.552;6.716;2023-03-03T02:25:32;32.80;;;15.60;;
12816;SDS011;6473;51.552;6.716;2023-03-03T02:28:05;30.83;;;15.23;;
12816;SDS011;6473;51.552;6.716;2023-03-03T02:30:35;31.00;;;15.55;;
12816;SDS011;6473;51.552;6.716;2023-03-03T02:33:03;32.63;;;15.02;;
12816;SDS011;6473;51.552;6.716;2023-03-03T02:35:31;33.40;;;15.40;;
12816;SDS011;6473;51.552;6.716;2023-03-03T02:38:06;32.28;;;16.27;;
12816;SDS011;6473;51.552;6.716;2023-03-03T02:40:41;30.55;;;15.35;;
12816;SDS011;6473;51.552;6.716;2023-03-03T02:43:16;34.00;;;16.45;;
12816;SDS011;6473;51.552;6.716;2023-03-03T02:45:46;29.58;;;14.90;;
12816;SDS011;6473;51.552;6.716;2023-03-03T02:48:14;34.25;;;16.05;;
12816;SDS011;6473;51.552;6.716;2023-03-03T02:50:42;28.05;;;14.18;;
12816;SDS011;6473;51.552;6.716;2023-03-03T02:53:10;33.10;;;15.85;;
12816;SDS011;6473;51.552;6.716;2023-03-03T02:55:38;28.60;;;15.60;;
12816;SDS011;6473;51.552;6.716;2023-03-03T02:58:05;29.80;;;14.63;;
12816;SDS011;6473;51.552;6.716;2023-03-03T03:00:33;30.92;;;14.95;;
12816;SDS011;6473;51.552;6.716;2023-03-03T03:03:01;24.85;;;14.23;;
12816;SDS011;6473;51.552;6.716;2023-03-03T03:05:28;31.30;;;15.18;;
12816;SDS011;6473;51.552;6.716;2023-03-03T03:07:56;29.27;;;13.97;;
12816;SDS011;6473;51.552;6.716;2023-03-03T03:10:23;28.20;;;14.13;;
12816;SDS011;6473;51.552;6.716;2023-03-03T03:12:51;29.50;;;14.00;;
12816;SDS011;6473;51.552;6.716;2023-03-03T03:15:18;29.50;;;14.48;;
12816;SDS011;6473;51.552;6.716;2023-03-03T03:17:47;27.30;;;12.67;;
12816;SDS011;6473;51.552;6.716;2023-03-03T03:20:15;27.27;;;13.83;;
12816;SDS011;6473;51.552;6.716;2023-03-03T03:22:44;31.80;;;15.50;;
12816;SDS011;6473;51.552;6.716;2023-03-03T03:25:11;26.83;;;15.33;;
12816;SDS011;6473;51.552;6.716;2023-03-03T03:27:39;29.75;;;14.45;;
12816;SDS011;6473;51.552;6.716;2023-03-03T03:30:07;30.85;;;14.63;;
12816;SDS011;6473;51.552;6.716;2023-03-03T03:32:34;30.40;;;14.63;;
12816;SDS011;6473;51.552;6.716;2023-03-03T03:35:03;29.30;;;14.77;;
12816;SDS011;6473;51.552;6.716;2023-03-03T03:37:31;31.10;;;15.07;;
12816;SDS011;6473;51.552;6.716;2023-03-03T03:39:58;26.15;;;14.38;;
12816;SDS011;6473;51.552;6.716;2023-03-03T03:42:26;28.27;;;14.50;;
12816;SDS011;6473;51.552;6.716;2023-03-03T03:44:54;37.03;;;14.73;;
12816;SDS011;6473;51.552;6.716;2023-03-03T03:47:22;28.63;;;14.70;;
12816;SDS011;6473;51.552;6.716;2023-03-03T03:49:50;32.88;;;16.55;;
12816;SDS011;6473;51.552;6.716;2023-03-03T03:52:20;33.07;;;16.37;;
12816;SDS011;6473;51.552;6.716;2023-03-03T03:54:47;33.63;;;16.10;;
12816;SDS011;6473;51.552;6.716;2023-03-03T03:57:16;31.30;;;14.98;;
12816;SDS011;6473;51.552;6.716;2023-03-03T03:59:44;32.72;;;16.20;;
12816;SDS011;6473;51.552;6.716;2023-03-03T04:02:11;31.37;;;15.77;;
12816;SDS011;6473;51.552;6.716;2023-03-03T04:04:39;31.83;;;17.25;;
12816;SDS011;6473;51.552;6.716;2023-03-03T04:07:06;37.35;;;16.35;;
12816;SDS011;6473;51.552;6.716;2023-03-03T04:09:35;34.22;;;16.83;;
12816;SDS011;6473;51.552;6.716;2023-03-03T04:12:03;33.73;;;15.83;;
12816;SDS011;6473;51.552;6.716;2023-03-03T04:14:30;36.10;;;17.20;;
12816;SDS011;6473;51.552;6.716;2023-03-03T04:16:58;35.47;;;16.98;;
12816;SDS011;6473;51.552;6.716;2023-03-03T04:19:26;32.28;;;16.33;;
12816;SDS011;6473;51.552;6.716;2023-03-03T04:21:54;31.73;;;16.15;;
12816;SDS011;6473;51.552;6.716;2023-03-03T04:24:21;34.65;;;17.27;;
12816;SDS011;6473;51.552;6.716;2023-03-03T04:26:51;33.33;;;16.10;;
12816;SDS011;6473;51.552;6.716;2023-03-03T04:29:18;36.43;;;17.30;;
12816;SDS011;6473;51.552;6.716;2023-03-03T04:31:46;31.40;;;15.57;;
12816;SDS011;6473;51.552;6.716;2023-03-03T04:34:15;33.63;;;16.27;;
12816;SDS011;6473;51.552;6.716;2023-03-03T04:36:42;36.00;;;16.80;;
12816;SDS011;6473;51.552;6.716;2023-03-03T04:39:10;34.17;;;16.27;;
12816;SDS011;6473;51.552;6.716;2023-03-03T04:41:38;38.22;;;16.95;;
12816;SDS011;6473;51.552;6.716;2023-03-03T04:44:06;34.60;;;16.10;;
12816;SDS011;6473;51.552;6.716;2023-03-03T04:46:33;32.83;;;15.52;;
12816;SDS011;6473;51.552;6.716;2023-03-03T04:49:02;33.30;;;16.33;;
12816;SDS011;6473;51.552;6.716;2023-03-03T04:51:32;33.15;;;16.83;;
12816;SDS011;6473;51.552;6.716;2023-03-03T04:53:59;40.38;;;17.40;;
12816;SDS011;6473;51.552;6.716;2023-03-03T04:56:28;37.53;;;16.80;;
12816;SDS011;6473;51.552;6.716;2023-03-03T04:58:56;35.00;;;16.27;;
12816;SDS011;6473;51.552;6.716;2023-03-03T05:01:24;38.08;;;17.50;;
12816;SDS011;6473;51.552;6.716;2023-03-03T05:03:52;33.05;;;15.88;;
12816;SDS011;6473;51.552;6.716;2023-03-03T05:06:19;32.77;;;15.63;;
12816;SDS011;6473;51.552;6.716;2023-03-03T05:08:46;34.03;;;16.83;;
12816;SDS011;6473;51.552;6.716;2023-03-03T05:11:16;31.63;;;16.13;;
12816;SDS011;6473;51.552;6.716;2023-03-03T05:13:43;32.50;;;15.15;;
12816;SDS011;6473;51.552;6.716;2023-03-03T05:16:10;31.97;;;14.90;;
12816;SDS011;6473;51.552;6.716;2023-03-03T05:18:39;33.47;;;15.60;;
12816;SDS011;6473;51.552;6.716;2023-03-03T05:21:06;31.67;;;16.20;;
12816;SDS011;6473;51.552;6.716;2023-03-03T05:23:34;33.57;;;15.40;;
12816;SDS011;6473;51.552;6.716;2023-03-03T05:26:00;34.05;;;15.38;;
12816;SDS011;6473;51.552;6.716;2023-03-03T05:28:28;34.23;;;15.83;;
12816;SDS011;6473;51.552;6.716;2023-03-03T05:30:55;33.50;;;15.27;;
12816;SDS011;6473;51.552;6.716;2023-03-03T05:33:22;35.17;;;15.30;;
12816;SDS011;6473;51.552;6.716;2023-03-03T05:35:53;35.30;;;15.17;;
12816;SDS011;6473;51.552;6.716;2023-03-03T05:38:21;34.15;;;15.32;;
12816;SDS011;6473;51.552;6.716;2023-03-03T05:40:48;29.90;;;14.87;;
12816;SDS011;6473;51.552;6.716;2023-03-03T05:43:16;32.22;;;15.35;;
12816;SDS011;6473;51.552;6.716;2023-03-03T05:45:43;31.70;;;15.05;;
12816;SDS011;6473;51.552;6.716;2023-03-03T05:48:11;36.28;;;15.85;;
12816;SDS011;6473;51.552;6.716;2023-03-03T05:50:38;28.48;;;14.20;;
12816;SDS011;6473;51.552;6.716;2023-03-03T05:53:06;34.45;;;15.43;;
12816;SDS011;6473;51.552;6.716;2023-03-03T05:55:33;29.33;;;14.13;;
12816;SDS011;6473;51.552;6.716;2023-03-03T05:58:00;28.20;;;14.43;;
12816;SDS011;6473;51.552;6.716;2023-03-03T06:00:27;30.55;;;14.05;;
12816;SDS011;6473;51.552;6.716;2023-03-03T06:02:55;31.08;;;14.20;;
12816;SDS011;6473;51.552;6.716;2023-03-03T06:05:22;31.17;;;15.27;;
12816;SDS011;6473;51.552;6.716;2023-03-03T06:07:49;28.30;;;13.70;;
12816;SDS011;6473;51.552;6.716;2023-03-03T06:10:17;25.25;;;13.57;;
12816;SDS011;6473;51.552;6.716;2023-03-03T06:12:49;32.28;;;13.68;;
12816;SDS011;6473;51.552;6.716;2023-03-03T06:15:16;30.42;;;14.07;;
12816;SDS011;6473;51.552;6.716;2023-03-03T06:17:43;32.50;;;14.73;;
12816;SDS011;6473;51.552;6.716;2023-03-03T06:20:11;31.60;;;14.10;;
12816;SDS011;6473;51.552;6.716;2023-03-03T06:22:38;29.38;;;13.85;;
12816;SDS011;6473;51.552;6.716;2023-03-03T06:25:05;29.77;;;13.98;;
12816;SDS011;6473;51.552;6.716;2023-03-03T06:27:34;30.60;;;12.90;;
12816;SDS011;6473;51.552;6.716;2023-03-03T06:30:01;24.83;;;12.87;;
12816;SDS011;6473;51.552;6.716;2023-03-03T06:32:28;28.58;;;12.95;;
12816;SDS011;6473;51.552;6.716;2023-03-03T06:34:55;29.17;;;12.82;;
12816;SDS011;6473;51.552;6.716;2023-03-03T06:37:22;28.00;;;12.88;;
12816;SDS011;6473;51.552;6.716;2023-03-03T06:39:50;28.73;;;14.15;;
12816;SDS011;6473;51.552;6.716;2023-03-03T06:42:17;30.35;;;13.57;;
12816;SDS011;6473;51.552;6.716;2023-03-03T06:44:46;31.48;;;12.73;;
12816;SDS011;6473;51.552;6.716;2023-03-03T06:47:13;28.70;;;13.65;;
12816;SDS011;6473;51.552;6.716;2023-03-03T06:49:41;28.98;;;13.07;;
12816;SDS011;6473;51.552;6.716;2023-03-03T06:52:10;37.43;;;13.57;;
12816;SDS011;6473;51.552;6.716;2023-03-03T06:54:39;27.75;;;12.38;;
12816;SDS011;6473;51.552;6.716;2023-03-03T06:57:10;30.63;;;13.70;;
12816;SDS011;6473;51.552;6.716;2023-03-03T06:59:42;29.52;;;13.80;;
12816;SDS011;6473;51.552;6.716;2023-03-03T07:02:13;28.48;;;13.38;;
12816;SDS011;6473;51.552;6.716;2023-03-03T07:04:43;28.00;;;13.07;;
12816;SDS011;6473;51.552;6.716;2023-03-03T07:07:14;28.98;;;14.32;;
12816;SDS011;6473;51.552;6.716;2023-03-03T07:09:43;33.20;;;14.55;;
12816;SDS011;6473;51.552;6.716;2023-03-03T07:12:12;29.63;;;14.27;;
12816;SDS011;6473;51.552;6.716;2023-03-03T07:14:41;33.80;;;13.77;;
12816;SDS011;6473;51.552;6.716;2023-03-03T07:17:09;28.25;;;13.35;;
12816;SDS011;6473;51.552;6.716;2023-03-03T07:19:42;29.45;;;12.25;;
12816;SDS011;6473;51.552;6.716;2023-03-03T07:22:13;29.95;;;13.18;;
12816;SDS011;6473;51.552;6.716;2023-03-03T07:24:42;27.98;;;13.45;;
12816;SDS011;6473;51.552;6.716;2023-03-03T07:27:11;27.05;;;12.93;;
12816;SDS011;6473;51.552;6.716;2023-03-03T07:29:44;30.27;;;13.15;;
12816;SDS011;6473;51.552;6.716;2023-03-03T07:32:20;32.28;;;13.82;;
12816;SDS011;6473;51.552;6.716;2023-03-03T07:34:51;23.20;;;12.07;;
12816;SDS011;6473;51.552;6.716;2023-03-03T07:37:21;27.30;;;12.02;;
12816;SDS011;6473;51.552;6.716;2023-03-03T07:39:56;26.10;;;13.43;;
12816;SDS011;6473;51.552;6.716;2023-03-03T07:42:24;29.15;;;12.55;;
12816;SDS011;6473;51.552;6.716;2023-03-03T07:45:19;25.23;;;12.43;;
12816;SDS011;6473;51.552;6.716;2023-03-03T07:47:51;23.45;;;11.43;;
12816;SDS011;6473;51.552;6.716;2023-03-03T07:50:22;26.33;;;12.82;;
12816;SDS011;6473;51.552;6.716;2023-03-03T07:52:50;27.40;;;12.40;;
12816;SDS011;6473;51.552;6.716;2023-03-03T07:55:26;23.88;;;12.00;;
12816;SDS011;6473;51.552;6.716;2023-03-03T07:58:00;25.75;;;12.15;;
12816;SDS011;6473;51.552;6.716;2023-03-03T08:03:54;27.20;;;12.02;;
12816;SDS011;6473;51.552;6.716;2023-03-03T08:15:22;23.60;;;11.85;;
12816;SDS011;6473;51.552;6.716;2023-03-03T08:17:50;24.13;;;10.80;;
12816;SDS011;6473;51.552;6.716;2023-03-03T08:23:19;22.70;;;11.77;;
12816;SDS011;6473;51.552;6.716;2023-03-03T08:25:47;26.48;;;11.40;;
12816;SDS011;6473;51.552;6.716;2023-03-03T08:28:15;22.45;;;11.38;;
12816;SDS011;6473;51.552;6.716;2023-03-03T08:30:43;22.13;;;11.05;;
12816;SDS011;6473;51.552;6.716;2023-03-03T08:33:10;23.00;;;11.07;;
12816;SDS011;6473;51.552;6.716;2023-03-03T08:35:38;23.23;;;11.85;;
12816;SDS011;6473;51.552;6.716;2023-03-03T08:38:07;24.90;;;11.73;;
12816;SDS011;6473;51.552;6.716;2023-03-03T08:40:34;25.10;;;12.50;;
12816;SDS011;6473;51.552;6.716;2023-03-03T08:43:02;23.88;;;10.30;;
12816;SDS011;6473;51.552;6.716;2023-03-03T08:45:29;25.90;;;11.75;;
12816;SDS011;6473;51.552;6.716;2023-03-03T08:47:57;24.67;;;10.75;;
12816;SDS011;6473;51.552;6.716;2023-03-03T08:50:25;26.20;;;11.40;;
12816;SDS011;6473;51.552;6.716;2023-03-03T08:52:53;22.40;;;11.55;;
12816;SDS011;6473;51.552;6.716;2023-03-03T08:55:21;23.77;;;11.75;;
12816;SDS011;6473;51.552;6.716;2023-03-03T08:57:48;23.88;;;11.32;;
12816;SDS011;6473;51.552;6.716;2023-03-03T09:00:16;22.42;;;11.98;;
12816;SDS011;6473;51.552;6.716;2023-03-03T09:02:44;23.48;;;10.48;;
12816;SDS011;6473;51.552;6.716;2023-03-03T09:05:11;21.50;;;10.73;;
12816;SDS011;6473;51.552;6.716;2023-03-03T09:07:39;22.92;;;11.10;;
12816;SDS011;6473;51.552;6.716;2023-03-03T09:10:07;22.67;;;10.80;;
12816;SDS011;6473;51.552;6.716;2023-03-03T09:12:38;26.08;;;12.15;;
12816;SDS011;6473;51.552;6.716;2023-03-03T09:15:12;23.23;;;10.00;;
12816;SDS011;6473;51.552;6.716;2023-03-03T09:17:43;24.52;;;11.63;;
12816;SDS011;6473;51.552;6.716;2023-03-03T09:22:58;22.48;;;9.50;;
12816;SDS011;6473;51.552;6.716;2023-03-03T09:25:42;22.65;;;9.93;;
12816;SDS011;6473;51.552;6.716;2023-03-03T09:28:12;22.10;;;9.85;;
12816;SDS011;6473;51.552;6.716;2023-03-03T09:30:51;21.55;;;9.40;;
12816;SDS011;6473;51.552;6.716;2023-03-03T09:33:23;20.35;;;9.05;;
12816;SDS011;6473;51.552;6.716;2023-03-03T09:35:53;20.42;;;9.75;;
12816;SDS011;6473;51.552;6.716;2023-03-03T09:38:28;21.27;;;10.15;;
12816;SDS011;6473;51.552;6.716;2023-03-03T09:41:09;22.23;;;9.38;;
12816;SDS011;6473;51.552;6.716;2023-03-03T09:43:58;20.60;;;10.07;;
12816;SDS011;6473;51.552;6.716;2023-03-03T09:46:43;20.23;;;9.57;;
12816;SDS011;6473;51.552;6.716;2023-03-03T09:49:18;21.42;;;9.27;;
12816;SDS011;6473;51.552;6.716;2023-03-03T09:52:02;19.08;;;8.77;;
12816;SDS011;6473;51.552;6.716;2023-03-03T09:54:46;20.35;;;9.45;;
12816;SDS011;6473;51.552;6.716;2023-03-03T09:57:23;19.55;;;8.68;;
12816;SDS011;6473;51.552;6.716;2023-03-03T10:00:04;21.27;;;9.82;;
12816;SDS011;6473;51.552;6.716;2023-03-03T10:02:46;17.02;;;9.60;;
12816;SDS011;6473;51.552;6.716;2023-03-03T10:05:31;15.27;;;7.88;;
12816;SDS011;6473;51.552;6.716;2023-03-03T10:08:10;19.10;;;8.55;;
12816;SDS011;6473;51.552;6.716;2023-03-03T10:11:00;16.58;;;8.07;;
12816;SDS011;6473;51.552;6.716;2023-03-03T10:13:35;17.63;;;8.25;;
12816;SDS011;6473;51.552;6.716;2023-03-03T10:16:35;17.98;;;7.80;;
12816;SDS011;6473;51.552;6.716;2023-03-03T10:19:36;16.35;;;8.07;;
12816;SDS011;6473;51.552;6.716;2023-03-03T10:24:53;18.83;;;8.18;;
12816;SDS011;6473;51.552;6.716;2023-03-03T10:27:35;16.90;;;8.10;;
12816;SDS011;6473;51.552;6.716;2023-03-03T10:30:16;21.35;;;9.10;;
12816;SDS011;6473;51.552;6.716;2023-03-03T10:32:55;17.35;;;7.70;;
12816;SDS011;6473;51.552;6.716;2023-03-03T10:35:31;16.90;;;8.13;;
12816;SDS011;6473;51.552;6.716;2023-03-03T10:38:16;16.23;;;8.50;;
12816;SDS011;6473;51.552;6.716;2023-03-03T10:40:54;14.75;;;8.25;;
12816;SDS011;6473;51.552;6.716;2023-03-03T10:43:37;15.70;;;7.38;;
12816;SDS011;6473;51.552;6.716;2023-03-03T10:49:24;15.95;;;7.82;;
12816;SDS011;6473;51.552;6.716;2023-03-03T10:52:00;16.15;;;8.07;;
12816;SDS011;6473;51.552;6.716;2023-03-03T10:54:44;18.40;;;8.02;;
12816;SDS011;6473;51.552;6.716;2023-03-03T10:57:22;15.40;;;8.15;;
12816;SDS011;6473;51.552;6.716;2023-03-03T11:00:02;15.45;;;8.40;;
12816;SDS011;6473;51.552;6.716;2023-03-03T11:02:41;19.63;;;7.97;;
12816;SDS011;6473;51.552;6.716;2023-03-03T11:05:22;13.43;;;7.38;;
12816;SDS011;6473;51.552;6.716;2023-03-03T11:08:00;12.95;;;7.80;;
12816;SDS011;6473;51.552;6.716;2023-03-03T11:10:36;15.15;;;8.18;;
12816;SDS011;6473;51.552;6.716;2023-03-03T11:13:15;16.25;;;7.75;;
12816;SDS011;6473;51.552;6.716;2023-03-03T11:15:54;15.60;;;8.07;;
12816;SDS011;6473;51.552;6.716;2023-03-03T11:18:33;14.07;;;7.70;;
12816;SDS011;6473;51.552;6.716;2023-03-03T11:21:11;16.30;;;8.15;;
12816;SDS011;6473;51.552;6.716;2023-03-03T11:23:52;14.98;;;7.40;;
12816;SDS011;6473;51.552;6.716;2023-03-03T11:27:00;15.52;;;7.72;;
12816;SDS011;6473;51.552;6.716;2023-03-03T11:29:43;13.13;;;7.88;;
12816;SDS011;6473;51.552;6.716;2023-03-03T11:32:22;17.98;;;8.18;;
12816;SDS011;6473;51.552;6.716;2023-03-03T11:34:58;16.70;;;8.50;;
12816;SDS011;6473;51.552;6.716;2023-03-03T11:37:36;11.98;;;8.02;;
12816;SDS011;6473;51.552;6.716;2023-03-03T11:40:11;16.30;;;8.57;;
12816;SDS011;6473;51.552;6.716;2023-03-03T11:42:45;15.55;;;8.73;;
12816;SDS011;6473;51.552;6.716;2023-03-03T11:45:21;21.15;;;7.90;;
12816;SDS011;6473;51.552;6.716;2023-03-03T11:47:52;16.33;;;8.85;;
12816;SDS011;6473;51.552;6.716;2023-03-03T11:50:25;14.13;;;8.10;;
12816;SDS011;6473;51.552;6.716;2023-03-03T11:53:02;13.05;;;7.65;;
12816;SDS011;6473;51.552;6.716;2023-03-03T11:55:40;15.45;;;8.02;;
12816;SDS011;6473;51.552;6.716;2023-03-03T11:58:11;20.10;;;9.45;;
12816;SDS011;6473;51.552;6.716;2023-03-03T12:00:43;18.30;;;8.13;;
12816;SDS011;6473;51.552;6.716;2023-03-03T12:03:20;12.18;;;7.78;;
12816;SDS011;6473;51.552;6.716;2023-03-03T12:05:55;17.67;;;7.60;;
12816;SDS011;6473;51.552;6.716;2023-03-03T12:08:36;13.60;;;7.90;;
12816;SDS011;6473;51.552;6.716;2023-03-03T12:11:12;14.35;;;8.35;;
12816;SDS011;6473;51.552;6.716;2023-03-03T12:13:49;15.00;;;8.48;;
12816;SDS011;6473;51.552;6.716;2023-03-03T12:16:22;12.52;;;8.60;;
12816;SDS011;6473;51.552;6.716;2023-03-03T12:19:02;16.00;;;8.40;;
12816;SDS011;6473;51.552;6.716;2023-03-03T12:21:46;12.38;;;8.00;;
12816;SDS011;6473;51.552;6.716;2023-03-03T12:24:32;12.93;;;8.40;;
12816;SDS011;6473;51.552;6.716;2023-03-03T12:27:10;14.77;;;8.38;;
12816;SDS011;6473;51.552;6.716;2023-03-03T12:29:41;14.48;;;9.32;;
12816;SDS011;6473;51.552;6.716;2023-03-03T12:32:20;15.70;;;9.15;;
12816;SDS011;6473;51.552;6.716;2023-03-03T12:34:56;13.95;;;8.13;;
12816;SDS011;6473;51.552;6.716;2023-03-03T12:37:41;12.75;;;9.27;;
12816;SDS011;6473;51.552;6.716;2023-03-03T12:40:18;14.35;;;10.07;;
12816;SDS011;6473;51.552;6.716;2023-03-03T12:42:48;14.50;;;9.82;;
12816;SDS011;6473;51.552;6.716;2023-03-03T12:45:43;15.25;;;10.93;;
12816;SDS011;6473;51.552;6.716;2023-03-03T12:48:18;15.82;;;11.27;;
12816;SDS011;6473;51.552;6.716;2023-03-03T12:50:52;15.77;;;11.07;;
12816;SDS011;6473;51.552;6.716;2023-03-03T12:53:41;21.83;;;10.95;;
12816;SDS011;6473;51.552;6.716;2023-03-03T12:56:22;15.27;;;10.80;;
12816;SDS011;6473;51.552;6.716;2023-03-03T12:58:55;33.58;;;12.88;;
12816;SDS011;6473;51.552;6.716;2023-03-03T13:01:32;15.32;;;11.15;;
12816;SDS011;6473;51.552;6.716;2023-03-03T13:04:10;15.73;;;10.82;;
12816;SDS011;6473;51.552;6.716;2023-03-03T13:06:51;16.40;;;11.00;;
12816;SDS011;6473;51.552;6.716;2023-03-03T13:09:27;16.30;;;11.05;;
12816;SDS011;6473;51.552;6.716;2023-03-03T13:12:11;15.77;;;10.50;;
12816;SDS011;6473;51.552;6.716;2023-03-03T13:14:48;16.52;;;11.90;;
12816;SDS011;6473;51.552;6.716;2023-03-03T13:17:22;21.58;;;10.77;;
12816;SDS011;6473;51.552;6.716;2023-03-03T13:19:53;13.35;;;10.32;;
12816;SDS011;6473;51.552;6.716;2023-03-03T13:22:29;16.23;;;10.60;;
12816;SDS011;6473;51.552;6.716;2023-03-03T13:25:02;14.93;;;10.63;;
12816;SDS011;6473;51.552;6.716;2023-03-03T13:27:36;13.82;;;10.07;;
12816;SDS011;6473;51.552;6.716;2023-03-03T13:30:11;17.77;;;11.98;;
12816;SDS011;6473;51.552;6.716;2023-03-03T13:32:45;13.20;;;10.45;;
12816;SDS011;6473;51.552;6.716;2023-03-03T13:35:19;14.10;;;10.93;;
12816;SDS011;6473;51.552;6.716;2023-03-03T13:37:58;14.73;;;10.60;;
12816;SDS011;6473;51.552;6.716;2023-03-03T13:40:30;16.05;;;10.95;;
12816;SDS011;6473;51.552;6.716;2023-03-03T13:43:09;11.98;;;10.05;;
12816;SDS011;6473;51.552;6.716;2023-03-03T13:45:46;15.38;;;10.55;;
12816;SDS011;6473;51.552;6.716;2023-03-03T13:48:23;14.30;;;10.60;;
12816;SDS011;6473;51.552;6.716;2023-03-03T13:51:03;13.13;;;10.95;;
12816;SDS011;6473;51.552;6.716;2023-03-03T13:53:39;13.32;;;10.73;;
12816;SDS011;6473;51.552;6.716;2023-03-03T13:56:14;18.58;;;10.77;;
12816;SDS011;6473;51.552;6.716;2023-03-03T13:59:00;12.88;;;10.38;;
12816;SDS011;6473;51.552;6.716;2023-03-03T14:01:37;14.02;;;10.70;;
12816;SDS011;6473;51.552;6.716;2023-03-03T14:04:28;12.10;;;10.80;;
12816;SDS011;6473;51.552;6.716;2023-03-03T14:07:00;16.50;;;10.35;;
12816;SDS011;6473;51.552;6.716;2023-03-03T14:09:35;21.45;;;11.52;;
12816;SDS011;6473;51.552;6.716;2023-03-03T14:12:18;13.88;;;10.90;;
12816;SDS011;6473;51.552;6.716;2023-03-03T14:14:53;13.73;;;11.20;;
12816;SDS011;6473;51.552;6.716;2023-03-03T14:17:31;14.75;;;10.80;;
12816;SDS011;6473;51.552;6.716;2023-03-03T14:20:09;12.95;;;11.07;;
12816;SDS011;6473;51.552;6.716;2023-03-03T14:22:44;18.17;;;11.20;;
12816;SDS011;6473;51.552;6.716;2023-03-03T14:25:15;19.40;;;11.57;;
12816;SDS011;6473;51.552;6.716;2023-03-03T14:27:52;19.60;;;11.77;;
12816;SDS011;6473;51.552;6.716;2023-03-03T14:30:39;12.90;;;10.95;;
12816;SDS011;6473;51.552;6.716;2023-03-03T14:33:15;15.65;;;10.75;;
12816;SDS011;6473;51.552;6.716;2023-03-03T14:35:47;14.55;;;11.20;;
12816;SDS011;6473;51.552;6.716;2023-03-03T14:38:17;13.57;;;11.15;;
12816;SDS011;6473;51.552;6.716;2023-03-03T14:40:46;13.50;;;11.32;;
12816;SDS011;6473;51.552;6.716;2023-03-03T14:43:21;12.15;;;10.50;;
12816;SDS011;6473;51.552;6.716;2023-03-03T14:45:51;12.07;;;10.60;;
12816;SDS011;6473;51.552;6.716;2023-03-03T14:48:19;16.50;;;10.77;;
12816;SDS011;6473;51.552;6.716;2023-03-03T14:50:48;12.52;;;10.90;;
12816;SDS011;6473;51.552;6.716;2023-03-03T14:53:21;12.82;;;10.75;;
12816;SDS011;6473;51.552;6.716;2023-03-03T14:56:13;18.02;;;11.02;;
12816;SDS011;6473;51.552;6.716;2023-03-03T14:58:41;15.90;;;11.00;;
12816;SDS011;6473;51.552;6.716;2023-03-03T15:01:14;14.40;;;11.30;;
12816;SDS011;6473;51.552;6.716;2023-03-03T15:03:46;22.52;;;10.95;;
12816;SDS011;6473;51.552;6.716;2023-03-03T15:06:29;20.27;;;10.75;;
12816;SDS011;6473;51.552;6.716;2023-03-03T15:09:20;13.02;;;10.35;;
12816;SDS011;6473;51.552;6.716;2023-03-03T15:11:52;12.98;;;10.25;;
12816;SDS011;6473;51.552;6.716;2023-03-03T15:14:22;47.35;;;12.43;;
12816;SDS011;6473;51.552;6.716;2023-03-03T15:16:56;12.35;;;10.18;;
12816;SDS011;6473;51.552;6.716;2023-03-03T15:19:43;11.85;;;10.07;;
12816;SDS011;6473;51.552;6.716;2023-03-03T15:22:21;12.57;;;10.00;;
12816;SDS011;6473;51.552;6.716;2023-03-03T15:24:59;11.45;;;9.95;;
12816;SDS011;6473;51.552;6.716;2023-03-03T15:27:32;14.85;;;9.93;;
12816;SDS011;6473;51.552;6.716;2023-03-03T15:30:09;13.75;;;9.82;;
12816;SDS011;6473;51.552;6.716;2023-03-03T15:32:47;11.15;;;9.32;;
12816;SDS011;6473;51.552;6.716;2023-03-03T15:35:28;13.15;;;9.25;;
12816;SDS011;6473;51.552;6.716;2023-03-03T15:38:02;13.35;;;9.98;;
12816;SDS011;6473;51.552;6.716;2023-03-03T15:40:38;10.63;;;8.95;;
12816;SDS011;6473;51.552;6.716;2023-03-03T15:43:12;11.63;;;9.52;;
12816;SDS011;6473;51.552;6.716;2023-03-03T15:45:49;13.60;;;8.80;;
12816;SDS011;6473;51.552;6.716;2023-03-03T15:51:17;10.77;;;8.65;;
12816;SDS011;6473;51.552;6.716;2023-03-03T15:54:09;14.38;;;8.88;;
12816;SDS011;6473;51.552;6.716;2023-03-03T15:56:51;18.88;;;10.02;;
12816;SDS011;6473;51.552;6.716;2023-03-03T15:59:24;10.77;;;8.35;;
12816;SDS011;6473;51.552;6.716;2023-03-03T16:02:13;11.85;;;8.10;;
12816;SDS011;6473;51.552;6.716;2023-03-03T16:04:46;12.15;;;8.50;;
12816;SDS011;6473;51.552;6.716;2023-03-03T16:07:23;13.13;;;8.10;;
12816;SDS011;6473;51.552;6.716;2023-03-03T16:09:59;9.68;;;8.10;;
12816;SDS011;6473;51.552;6.716;2023-03-03T16:12:38;11.57;;;8.57;;
12816;SDS011;6473;51.552;6.716;2023-03-03T16:15:16;12.25;;;9.10;;
12816;SDS011;6473;51.552;6.716;2023-03-03T16:17:54;11.43;;;8.75;;
12816;SDS011;6473;51.552;6.716;2023-03-03T16:20:32;13.57;;;8.57;;
12816;SDS011;6473;51.552;6.716;2023-03-03T16:23:09;11.23;;;8.60;;
12816;SDS011;6473;51.552;6.716;2023-03-03T16:25:52;11.18;;;9.20;;
12816;SDS011;6473;51.552;6.716;2023-03-03T16:28:38;11.38;;;8.13;;
12816;SDS011;6473;51.552;6.716;2023-03-03T16:31:17;12.50;;;8.27;;
12816;SDS011;6473;51.552;6.716;2023-03-03T16:33:49;16.90;;;8.50;;
12816;SDS011;6473;51.552;6.716;2023-03-03T16:36:26;14.57;;;9.13;;
12816;SDS011;6473;51.552;6.716;2023-03-03T16:39:01;14.75;;;8.75;;
12816;SDS011;6473;51.552;6.716;2023-03-03T16:41:37;10.43;;;7.70;;
12816;SDS011;6473;51.552;6.716;2023-03-03T16:44:11;10.82;;;7.60;;
12816;SDS011;6473;51.552;6.716;2023-03-03T16:46:45;14.75;;;8.43;;
12816;SDS011;6473;51.552;6.716;2023-03-03T16:49:14;16.52;;;9.02;;
12816;SDS011;6473;51.552;6.716;2023-03-03T16:51:50;12.88;;;8.07;;
12816;SDS011;6473;51.552;6.716;2023-03-03T16:54:24;14.65;;;9.38;;
12816;SDS011;6473;51.552;6.716;2023-03-03T16:57:00;14.02;;;8.32;;
12816;SDS011;6473;51.552;6.716;2023-03-03T16:59:35;11.38;;;8.15;;
12816;SDS011;6473;51.552;6.716;2023-03-03T17:02:22;15.55;;;8.40;;
12816;SDS011;6473;51.552;6.716;2023-03-03T17:05:16;13.90;;;8.95;;
12816;SDS011;6473;51.552;6.716;2023-03-03T17:07:56;20.00;;;8.95;;
12816;SDS011;6473;51.552;6.716;2023-03-03T17:10:36;11.50;;;8.40;;
12816;SDS011;6473;51.552;6.716;2023-03-03T17:13:17;12.60;;;8.75;;
12816;SDS011;6473;51.552;6.716;2023-03-03T17:15:56;17.48;;;9.07;;
12816;SDS011;6473;51.552;6.716;2023-03-03T17:18:34;15.43;;;9.23;;
12816;SDS011;6473;51.552;6.716;2023-03-03T17:21:09;26.42;;;9.52;;
12816;SDS011;6473;51.552;6.716;2023-03-03T17:23:51;16.13;;;8.90;;
12816;SDS011;6473;51.552;6.716;2023-03-03T17:26:29;10.65;;;8.13;;
12816;SDS011;6473;51.552;6.716;2023-03-03T17:29:13;13.63;;;9.45;;
12816;SDS011;6473;51.552;6.716;2023-03-03T17:32:05;16.80;;;8.98;;
12816;SDS011;6473;51.552;6.716;2023-03-03T17:34:45;15.93;;;8.70;;
12816;SDS011;6473;51.552;6.716;2023-03-03T17:37:23;13.68;;;9.38;;
12816;SDS011;6473;51.552;6.716;2023-03-03T17:40:02;15.52;;;9.57;;
12816;SDS011;6473;51.552;6.716;2023-03-03T17:42:41;11.45;;;8.75;;
12816;SDS011;6473;51.552;6.716;2023-03-03T17:45:13;17.17;;;9.77;;
12816;SDS011;6473;51.552;6.716;2023-03-03T17:47:52;14.93;;;9.73;;